Blue Star — WDJ5868 — position and weather

sailwx.info

Track history (hours):
 
Tides and Currents Weather Stations Pressure Air Temp Water Temp Dewpoint Dewpoint Depression Visibility Wind Speed Wind Dir Waves Ship Positions

Blue Star

Owner: Blue Star Marine, LAKE CHARLES, LA. More information available from US FCC via Universal Licensing System and Coast Guard Vessel Documentation Center.

Last reported at 2018-Jun-13 22:12 UTC. Time now 2018-Jun-21 21:37 UTC.
Position N 30°12' W 093°14'.

Length 12 m; draft 1.8 m.

Type: Ship. MMSI: 367792040.

Date/timePositionNaut miles runAvg speedWind from/ knotsBaromVisibWave heightAir tempDewpointWater temp
2018-Jun-13 22:12N 30°12' W 093°14'1 3.5
2018-Jun-13 22:01N 30°13' W 093°15'612.1
2018-Jun-13 21:30N 30°08' W 093°20'815.2
2018-Jun-13 21:00N 30°00' W 093°20'8 0.8
2018-Jun-13 11:47N 29°53' W 093°21'516.0
2018-Jun-13 11:30N 29°57' W 093°20'714.7
2018-Jun-13 11:01N 30°05' W 093°20'612.2
2018-Jun-13 10:30N 30°11' W 093°19'4 7.1
2018-Jun-13 10:00N 30°13' W 093°15'  
2018-Jun-05 17:19N 30°12' W 093°14'2 6.8
2018-Jun-05 17:00N 30°12' W 093°17'714.0
2018-Jun-05 16:30N 30°06' W 093°19'917.4
2018-Jun-05 16:00N 29°57' W 093°20'5 0.6
2018-Jun-05 07:24N 29°52' W 093°21'717.7
2018-Jun-05 07:00N 29°59' W 093°20'612.7
2018-Jun-05 06:30N 30°05' W 093°20'611.2
2018-Jun-05 06:00N 30°11' W 093°19'4 7.6
2018-Jun-05 05:30N 30°12' W 093°15'0 0.6
2018-Jun-05 05:00N 30°12' W 093°14'  
Track history (hours):
 
Tides and Currents Weather Stations Pressure Air Temp Water Temp Dewpoint Dewpoint Depression Visibility Wind Speed Wind Dir Waves Ship Positions

Blue Star

Owner: Blue Star Marine, LAKE CHARLES, LA. More information available from US FCC via Universal Licensing System and Coast Guard Vessel Documentation Center.

Last reported at 2018-Jun-13 22:12 UTC. Time now 2018-Jun-21 21:37 UTC.
Position N 30°12' W 093°14'.

Length 12 m; draft 1.8 m.

Type: Ship. MMSI: 367792040.

Date/timePositionNaut miles runAvg speedWind from/ knotsBaromVisibWave heightAir tempDewpointWater temp
2018-Jun-13 22:12N 30°12' W 093°14'1 3.5
2018-Jun-13 22:01N 30°13' W 093°15'612.1
2018-Jun-13 21:30N 30°08' W 093°20'815.2
2018-Jun-13 21:00N 30°00' W 093°20'8 0.8
2018-Jun-13 11:47N 29°53' W 093°21'516.0
2018-Jun-13 11:30N 29°57' W 093°20'714.7
2018-Jun-13 11:01N 30°05' W 093°20'612.2
2018-Jun-13 10:30N 30°11' W 093°19'4 7.1
2018-Jun-13 10:00N 30°13' W 093°15'  
2018-Jun-05 17:19N 30°12' W 093°14'2 6.8
2018-Jun-05 17:00N 30°12' W 093°17'714.0
2018-Jun-05 16:30N 30°06' W 093°19'917.4
2018-Jun-05 16:00N 29°57' W 093°20'5 0.6
2018-Jun-05 07:24N 29°52' W 093°21'717.7
2018-Jun-05 07:00N 29°59' W 093°20'612.7
2018-Jun-05 06:30N 30°05' W 093°20'611.2
2018-Jun-05 06:00N 30°11' W 093°19'4 7.6
2018-Jun-05 05:30N 30°12' W 093°15'0 0.6
2018-Jun-05 05:00N 30°12' W 093°14'  

Dump ship's entire track history